createdAt,value
2022-09-22T00:00:02.499Z,8.60
2022-09-22T00:01:02.420Z,8.57
2022-09-22T00:02:03.267Z,8.58
2022-09-22T00:03:03.085Z,8.55
2022-09-22T00:04:03.527Z,8.54
2022-09-22T00:05:03.329Z,8.55
2022-09-22T00:06:03.348Z,8.53
2022-09-22T00:07:03.884Z,8.50
2022-09-22T00:08:03.281Z,8.51
2022-09-22T00:09:03.833Z,8.54
2022-09-22T00:10:03.342Z,8.53
2022-09-22T00:11:03.697Z,8.54
2022-09-22T00:12:03.243Z,8.55
2022-09-22T00:13:02.638Z,8.53
2022-09-22T00:14:03.080Z,8.51
2022-09-22T00:15:02.718Z,8.53
2022-09-22T00:16:03.055Z,8.53
2022-09-22T00:17:03.026Z,8.54
2022-09-22T00:18:03.187Z,8.57
2022-09-22T00:19:03.455Z,8.58
2022-09-22T00:20:03.599Z,8.57
2022-09-22T00:21:03.239Z,8.60
2022-09-22T00:22:03.626Z,8.58
2022-09-22T00:23:03.248Z,8.60
2022-09-22T00:24:03.746Z,8.58
2022-09-22T00:25:03.197Z,8.60
2022-09-22T00:26:03.502Z,8.62
2022-09-22T00:27:03.030Z,8.63
2022-09-22T00:28:02.475Z,8.63
2022-09-22T00:29:02.680Z,8.63
2022-09-22T00:30:02.412Z,8.65
2022-09-22T00:31:02.852Z,8.62
2022-09-22T00:32:07.099Z,8.60
2022-09-22T00:33:03.026Z,8.60
2022-09-22T00:34:03.204Z,8.57
2022-09-22T00:35:02.842Z,8.57
2022-09-22T00:36:03.326Z,8.57
2022-09-22T00:37:03.542Z,8.58
2022-09-22T00:38:03.487Z,8.55
2022-09-22T00:39:03.062Z,8.55
2022-09-22T00:40:03.533Z,8.53
2022-09-22T00:41:03.013Z,8.54
2022-09-22T00:42:03.175Z,8.54
2022-09-22T00:43:03.568Z,8.53
2022-09-22T00:44:03.339Z,8.51
2022-09-22T00:45:03.727Z,8.50
2022-09-22T00:46:04.027Z,8.48
2022-09-22T00:47:02.715Z,8.47
2022-09-22T00:48:03.173Z,8.47
2022-09-22T00:49:02.634Z,8.48
2022-09-22T00:50:03.093Z,8.44
2022-09-22T00:51:02.809Z,8.42
2022-09-22T00:52:03.377Z,8.42
2022-09-22T00:53:03.804Z,8.44
2022-09-22T00:54:03.221Z,8.40
2022-09-22T00:55:03.533Z,8.39
2022-09-22T00:56:03.347Z,8.42
2022-09-22T00:57:02.874Z,8.42
2022-09-22T00:58:03.329Z,8.40
2022-09-22T00:59:03.006Z,8.40
2022-09-22T01:00:02.785Z,8.37
2022-09-22T01:01:03.446Z,8.40
2022-09-22T01:02:02.063Z,8.37
2022-09-22T01:03:01.934Z,8.39
2022-09-22T01:04:02.333Z,8.40
2022-09-22T01:05:02.099Z,8.37
2022-09-22T01:06:01.942Z,8.36
2022-09-22T01:07:02.564Z,8.32
2022-09-22T01:08:02.325Z,8.32
2022-09-22T01:09:02.741Z,8.29
2022-09-22T01:10:02.463Z,8.29
2022-09-22T01:11:02.263Z,8.26
2022-09-22T01:12:01.721Z,8.25
2022-09-22T01:13:02.109Z,8.26
2022-09-22T01:14:01.982Z,8.25
2022-09-22T01:15:01.767Z,8.22
2022-09-22T01:16:02.229Z,8.21
2022-09-22T01:17:02.070Z,8.22
2022-09-22T01:18:01.902Z,8.21
2022-09-22T01:19:01.571Z,8.20
2022-09-22T01:20:01.979Z,8.20
2022-09-22T01:21:01.810Z,8.22
2022-09-22T01:22:02.233Z,8.22
2022-09-22T01:23:02.659Z,8.22
2022-09-22T01:24:02.347Z,8.21
2022-09-22T01:25:02.541Z,8.20
2022-09-22T01:26:02.351Z,8.15
2022-09-22T01:27:01.886Z,8.15
2022-09-22T01:28:01.666Z,8.12
2022-09-22T01:29:02.070Z,8.12
2022-09-22T01:30:01.862Z,8.11
2022-09-22T01:31:01.786Z,8.12
2022-09-22T01:32:02.302Z,8.12
2022-09-22T01:33:02.724Z,8.15
2022-09-22T01:34:02.194Z,8.14
2022-09-22T01:35:02.633Z,8.14
2022-09-22T01:36:02.099Z,8.14
2022-09-22T01:37:02.527Z,8.12
2022-09-22T01:38:02.306Z,8.12
2022-09-22T01:39:02.721Z,8.15
2022-09-22T01:40:02.492Z,8.12
2022-09-22T01:41:02.967Z,8.14
2022-09-22T01:42:02.512Z,8.12
2022-09-22T01:43:02.066Z,8.14
2022-09-22T01:44:02.448Z,8.15
2022-09-22T01:45:01.986Z,8.12
2022-09-22T01:46:02.519Z,8.10
2022-09-22T01:47:02.826Z,8.08
2022-09-22T01:48:02.596Z,8.07
2022-09-22T01:49:03.002Z,8.04
2022-09-22T01:50:02.805Z,8.02
2022-09-22T01:51:03.112Z,8.02
2022-09-22T01:52:02.411Z,7.99
2022-09-22T01:53:02.174Z,8.02
2022-09-22T01:54:02.595Z,8.02
2022-09-22T01:55:02.037Z,8.00
2022-09-22T01:56:02.464Z,7.94
2022-09-22T01:57:01.696Z,7.96
2022-09-22T01:58:01.518Z,7.93
2022-09-22T01:59:01.604Z,7.93
2022-09-22T02:00:02.102Z,7.94
2022-09-22T02:01:01.661Z,7.94
2022-09-22T02:02:02.838Z,7.93
2022-09-22T02:03:02.797Z,7.96
2022-09-22T02:04:02.647Z,7.97
2022-09-22T02:05:03.129Z,7.97
2022-09-22T02:06:03.288Z,7.97
2022-09-22T02:07:02.526Z,7.99
2022-09-22T02:08:02.259Z,7.99
2022-09-22T02:09:02.654Z,7.97
2022-09-22T02:10:02.367Z,7.96
2022-09-22T02:11:02.448Z,8.00
2022-09-22T02:12:02.767Z,8.00
2022-09-22T02:13:02.484Z,7.99
2022-09-22T02:14:02.586Z,7.99
2022-09-22T02:15:03.063Z,7.99
2022-09-22T02:16:02.663Z,7.97
2022-09-22T02:17:03.364Z,7.97
2022-09-22T02:18:02.784Z,7.94
2022-09-22T02:19:12.397Z,7.93
2022-09-22T02:20:03.234Z,7.93
2022-09-22T02:21:02.972Z,7.93
2022-09-22T02:22:02.403Z,7.92
2022-09-22T02:23:02.094Z,7.92
2022-09-22T02:24:02.493Z,7.89
2022-09-22T02:25:02.319Z,7.85
2022-09-22T02:26:02.042Z,7.84
2022-09-22T02:27:02.459Z,7.82
2022-09-22T02:28:02.029Z,7.82
2022-09-22T02:29:02.048Z,7.82
2022-09-22T02:30:02.449Z,7.79
2022-09-22T02:31:20.444Z,7.79
2022-09-22T02:32:03.144Z,7.79
2022-09-22T02:33:02.876Z,7.77
2022-09-22T02:34:02.654Z,7.75
2022-09-22T02:35:03.042Z,7.75
2022-09-22T02:36:02.662Z,7.74
2022-09-22T02:37:03.143Z,7.75
2022-09-22T02:38:02.878Z,7.74
2022-09-22T02:39:03.213Z,7.72
2022-09-22T02:40:02.953Z,7.69
2022-09-22T02:41:03.247Z,7.67
2022-09-22T02:42:03.282Z,7.67
2022-09-22T02:43:03.269Z,7.67
2022-09-22T02:44:02.732Z,7.63
2022-09-22T02:45:03.235Z,7.63
2022-09-22T02:46:02.949Z,7.63
2022-09-22T02:47:02.549Z,7.63
2022-09-22T02:48:02.271Z,7.63
2022-09-22T02:49:02.102Z,7.63
2022-09-22T02:50:02.102Z,7.60
2022-09-22T02:51:02.615Z,7.62
2022-09-22T02:52:02.759Z,7.58
2022-09-22T02:53:02.504Z,7.59
2022-09-22T02:54:02.914Z,7.58
2022-09-22T02:55:02.303Z,7.59
2022-09-22T02:56:02.635Z,7.59
2022-09-22T02:57:02.860Z,7.59
2022-09-22T02:58:02.664Z,7.56
2022-09-22T02:59:02.555Z,7.56
2022-09-22T03:00:02.941Z,7.56
2022-09-22T03:01:02.773Z,7.56
2022-09-22T03:02:03.198Z,7.55
2022-09-22T03:03:02.919Z,7.56
2022-09-22T03:04:02.663Z,7.55
2022-09-22T03:05:03.252Z,7.55
2022-09-22T03:06:03.091Z,7.55
2022-09-22T03:07:02.591Z,7.55
2022-09-22T03:08:02.348Z,7.53
2022-09-22T03:09:02.007Z,7.53
2022-09-22T03:10:02.135Z,7.50
2022-09-22T03:11:02.562Z,7.52
2022-09-22T03:12:02.710Z,7.49
2022-09-22T03:13:16.560Z,7.50
2022-09-22T03:14:02.414Z,7.52
2022-09-22T03:15:02.381Z,7.53
2022-09-22T03:16:02.830Z,7.50
2022-09-22T03:17:03.136Z,7.53
2022-09-22T03:18:02.710Z,7.52
2022-09-22T03:19:02.831Z,7.52
2022-09-22T03:20:02.514Z,7.52
2022-09-22T03:21:02.934Z,7.49
2022-09-22T03:22:02.796Z,7.50
2022-09-22T03:23:02.967Z,7.52
2022-09-22T03:24:02.731Z,7.52
2022-09-22T03:25:03.151Z,7.50
2022-09-22T03:26:02.655Z,7.45
2022-09-22T03:27:02.811Z,7.49
2022-09-22T03:28:02.601Z,7.47
2022-09-22T03:29:02.639Z,7.49
2022-09-22T03:30:02.342Z,7.45
2022-09-22T03:31:02.214Z,7.44
2022-09-22T03:32:01.941Z,7.42
2022-09-22T03:33:02.412Z,7.41
2022-09-22T03:34:02.251Z,7.40
2022-09-22T03:35:01.960Z,7.40
2022-09-22T03:36:02.387Z,7.38
2022-09-22T03:37:01.861Z,7.38
2022-09-22T03:38:02.276Z,7.37
2022-09-22T03:39:01.969Z,7.34
2022-09-22T03:40:02.325Z,7.29
2022-09-22T03:41:02.060Z,7.31
2022-09-22T03:42:02.450Z,7.27
2022-09-22T03:43:02.945Z,7.24
2022-09-22T03:44:02.550Z,7.23
2022-09-22T03:45:03.082Z,7.23
2022-09-22T03:46:02.690Z,7.20
2022-09-22T03:47:02.532Z,7.19
2022-09-22T03:48:02.988Z,7.17
2022-09-22T03:49:02.839Z,7.19
2022-09-22T03:50:02.663Z,7.20
2022-09-22T03:51:03.145Z,7.19
2022-09-22T03:52:02.550Z,7.20
2022-09-22T03:53:02.961Z,7.22
2022-09-22T03:54:02.678Z,7.22
2022-09-22T03:55:03.115Z,7.23
2022-09-22T03:56:02.791Z,7.20
2022-09-22T03:57:02.271Z,7.19
2022-09-22T03:58:02.619Z,7.17
2022-09-22T03:59:02.611Z,7.17
2022-09-22T04:00:02.352Z,7.17
2022-09-22T04:01:02.351Z,7.17
2022-09-22T04:02:02.891Z,7.19
2022-09-22T04:03:02.710Z,7.17
2022-09-22T04:04:02.991Z,7.16
2022-09-22T04:05:02.670Z,7.16
2022-09-22T04:06:03.100Z,7.09
2022-09-22T04:07:07.087Z,7.12
2022-09-22T04:08:02.257Z,7.08
2022-09-22T04:09:02.704Z,7.09
2022-09-22T04:10:02.305Z,7.07
2022-09-22T04:11:02.581Z,7.04
2022-09-22T04:12:02.282Z,7.07
2022-09-22T04:13:02.453Z,7.07
2022-09-22T04:14:02.313Z,7.05
2022-09-22T04:15:02.769Z,7.04
2022-09-22T04:16:02.247Z,7.04
2022-09-22T04:17:02.615Z,7.04
2022-09-22T04:18:02.935Z,7.02
2022-09-22T04:19:02.969Z,7.01
2022-09-22T04:20:02.688Z,6.99
2022-09-22T04:21:03.035Z,7.02
2022-09-22T04:22:02.743Z,6.99
2022-09-22T04:23:03.143Z,7.01
2022-09-22T04:24:02.869Z,7.02
2022-09-22T04:25:03.274Z,7.02
2022-09-22T04:26:02.734Z,7.02
2022-09-22T04:27:19.054Z,7.01
2022-09-22T04:28:05.581Z,6.98
2022-09-22T04:29:02.243Z,6.98
2022-09-22T04:30:02.672Z,6.95
2022-09-22T04:31:02.231Z,6.95
2022-09-22T04:32:02.649Z,6.89
2022-09-22T04:33:02.991Z,6.91
2022-09-22T04:34:06.910Z,6.90
2022-09-22T04:35:03.015Z,6.90
2022-09-22T04:36:02.710Z,6.87
2022-09-22T04:37:03.189Z,6.87
2022-09-22T04:38:03.574Z,6.87
2022-09-22T04:39:02.994Z,6.87
2022-09-22T04:40:03.430Z,6.86
2022-09-22T04:41:03.161Z,6.86
2022-09-22T04:42:02.485Z,6.86
2022-09-22T04:43:02.909Z,6.84
2022-09-22T04:44:02.718Z,6.84
2022-09-22T04:45:02.493Z,6.83
2022-09-22T04:46:03.069Z,6.80
2022-09-22T04:47:02.422Z,6.83
2022-09-22T04:48:02.575Z,6.80
2022-09-22T04:49:02.494Z,6.77
2022-09-22T04:50:02.233Z,6.77
2022-09-22T04:51:02.047Z,6.79
2022-09-22T04:52:02.357Z,6.80
2022-09-22T04:53:02.262Z,6.79
2022-09-22T04:54:02.701Z,6.76
2022-09-22T04:55:02.495Z,6.76
2022-09-22T04:56:02.644Z,6.73
2022-09-22T04:57:03.117Z,6.73
2022-09-22T04:58:02.992Z,6.76
2022-09-22T04:59:03.002Z,6.72
2022-09-22T05:00:02.836Z,6.73
2022-09-22T05:01:03.250Z,6.73
2022-09-22T05:02:02.769Z,6.71
2022-09-22T05:03:03.031Z,6.69
2022-09-22T05:04:02.563Z,6.66
2022-09-22T05:05:03.013Z,6.66
2022-09-22T05:06:02.641Z,6.65
2022-09-22T05:07:03.269Z,6.65
2022-09-22T05:08:03.075Z,6.65
2022-09-22T05:09:02.974Z,6.65
2022-09-22T05:10:02.843Z,6.63
2022-09-22T05:11:03.400Z,6.65
2022-09-22T05:12:02.971Z,6.61
2022-09-22T05:13:02.861Z,6.59
2022-09-22T05:14:02.642Z,6.62
2022-09-22T05:15:03.127Z,6.59
2022-09-22T05:16:03.239Z,6.61
2022-09-22T05:17:02.651Z,6.62
2022-09-22T05:18:02.650Z,6.62
2022-09-22T05:19:02.227Z,6.59
2022-09-22T05:20:02.729Z,6.59
2022-09-22T05:21:02.275Z,6.59
2022-09-22T05:22:02.912Z,6.56
2022-09-22T05:23:02.598Z,6.59
2022-09-22T05:24:02.303Z,6.59
2022-09-22T05:25:02.221Z,6.58
2022-09-22T05:26:02.736Z,6.59
2022-09-22T05:27:03.257Z,6.59
2022-09-22T05:28:03.096Z,6.58
2022-09-22T05:29:03.118Z,6.58
2022-09-22T05:30:02.978Z,6.54
2022-09-22T05:31:02.809Z,6.58
2022-09-22T05:32:03.471Z,6.56
2022-09-22T05:33:03.422Z,6.54
2022-09-22T05:34:03.259Z,6.56
2022-09-22T05:35:02.854Z,6.54
2022-09-22T05:36:03.117Z,6.58
2022-09-22T05:37:02.758Z,6.58
2022-09-22T05:38:02.350Z,6.54
2022-09-22T05:39:02.799Z,6.54
2022-09-22T05:40:02.501Z,6.54
2022-09-22T05:41:02.282Z,6.56
2022-09-22T05:42:02.269Z,6.56
2022-09-22T05:43:02.515Z,6.56
2022-09-22T05:44:02.565Z,6.54
2022-09-22T05:45:02.511Z,6.56
2022-09-22T05:46:02.522Z,6.56
2022-09-22T05:47:03.150Z,6.58
2022-09-22T05:48:02.544Z,6.56
2022-09-22T05:49:03.112Z,6.56
2022-09-22T05:50:02.866Z,6.58
2022-09-22T05:51:02.587Z,6.58
2022-09-22T05:52:03.394Z,6.58
2022-09-22T05:53:02.993Z,6.56
2022-09-22T05:54:02.810Z,6.56
2022-09-22T05:55:03.338Z,6.56
2022-09-22T05:56:03.021Z,6.58
2022-09-22T05:57:02.606Z,6.58
2022-09-22T05:58:02.319Z,6.61
2022-09-22T05:59:02.185Z,6.59
2022-09-22T06:00:02.042Z,6.59
2022-09-22T06:01:02.136Z,6.61
2022-09-22T06:02:13.366Z,6.61
2022-09-22T06:03:02.127Z,6.59
2022-09-22T06:04:02.231Z,6.62
2022-09-22T06:05:02.128Z,6.61
2022-09-22T06:06:02.674Z,6.61
2022-09-22T06:07:02.966Z,6.65
2022-09-22T06:08:02.527Z,6.66
2022-09-22T06:09:02.747Z,6.68
2022-09-22T06:10:02.590Z,6.68
2022-09-22T06:11:02.430Z,6.68
2022-09-22T06:12:02.954Z,6.69
2022-09-22T06:13:02.304Z,6.73
2022-09-22T06:14:02.822Z,6.71
2022-09-22T06:15:02.595Z,6.73
2022-09-22T06:16:02.509Z,6.73
2022-09-22T06:17:02.352Z,6.76
2022-09-22T06:18:02.597Z,6.72
2022-09-22T06:19:02.458Z,6.73
2022-09-22T06:20:02.892Z,6.77
2022-09-22T06:21:02.768Z,6.80
2022-09-22T06:22:02.021Z,6.80
2022-09-22T06:23:01.908Z,6.84
2022-09-22T06:24:01.911Z,6.84
2022-09-22T06:25:01.924Z,6.87
2022-09-22T06:26:02.455Z,6.87
2022-09-22T06:27:02.418Z,6.90
2022-09-22T06:28:02.390Z,6.90
2022-09-22T06:29:02.712Z,6.95
2022-09-22T06:30:02.578Z,6.95
2022-09-22T06:31:02.486Z,6.97
2022-09-22T06:32:02.186Z,6.97
2022-09-22T06:33:02.163Z,7.01
2022-09-22T06:34:05.498Z,7.02
2022-09-22T06:35:02.630Z,7.04
2022-09-22T06:36:02.293Z,7.08
2022-09-22T06:37:02.152Z,7.09
2022-09-22T06:38:02.663Z,7.13
2022-09-22T06:39:02.379Z,7.15
2022-09-22T06:40:02.370Z,7.17
2022-09-22T06:41:02.334Z,7.20
2022-09-22T06:42:02.188Z,7.24
2022-09-22T06:43:02.611Z,7.27
2022-09-22T06:44:02.677Z,7.32
2022-09-22T06:45:02.442Z,7.37
2022-09-22T06:46:02.466Z,7.40
2022-09-22T06:47:02.375Z,7.44
2022-09-22T06:48:06.311Z,7.50
2022-09-22T06:49:02.413Z,7.55
2022-09-22T06:50:02.392Z,7.58
2022-09-22T06:51:02.365Z,7.63
2022-09-22T06:52:02.055Z,7.69
2022-09-22T06:53:02.022Z,7.75
2022-09-22T06:54:02.091Z,7.79
2022-09-22T06:55:02.166Z,7.87
2022-09-22T06:56:02.119Z,7.96
2022-09-22T06:57:02.154Z,8.03
2022-09-22T06:58:02.801Z,8.12
2022-09-22T06:59:10.622Z,8.22
2022-09-22T07:00:02.773Z,8.32
2022-09-22T07:01:05.192Z,8.42
2022-09-22T07:02:02.674Z,8.51
2022-09-22T07:03:02.983Z,8.62
2022-09-22T07:04:02.648Z,8.69
2022-09-22T07:05:02.612Z,8.79
2022-09-22T07:06:02.467Z,8.86
2022-09-22T07:07:02.171Z,8.93
2022-09-22T07:08:02.055Z,9.02
2022-09-22T07:09:02.522Z,9.15
2022-09-22T07:10:02.405Z,9.23
2022-09-22T07:11:02.568Z,9.32
2022-09-22T07:12:02.260Z,9.43
2022-09-22T07:13:02.287Z,9.50
2022-09-22T07:14:02.296Z,9.57
2022-09-22T07:15:02.082Z,9.66
2022-09-22T07:16:02.523Z,9.75
2022-09-22T07:17:02.877Z,9.88
2022-09-22T07:18:02.496Z,9.94
2022-09-22T07:19:02.578Z,10.04
2022-09-22T07:20:02.613Z,10.15
2022-09-22T07:21:02.780Z,10.24
2022-09-22T07:22:02.585Z,10.30
2022-09-22T07:23:02.344Z,10.33
2022-09-22T07:24:02.756Z,10.37
2022-09-22T07:25:02.701Z,10.47
2022-09-22T07:26:02.492Z,10.53
2022-09-22T07:27:02.621Z,10.60
2022-09-22T07:28:02.751Z,10.68
2022-09-22T07:29:02.847Z,10.76
2022-09-22T07:30:02.347Z,10.83
2022-09-22T07:31:02.386Z,10.89
2022-09-22T07:32:01.895Z,10.96
2022-09-22T07:33:01.962Z,11.06
2022-09-22T07:34:01.987Z,11.11
2022-09-22T07:35:02.217Z,11.20
2022-09-22T07:36:01.806Z,11.29
2022-09-22T07:37:02.533Z,11.38
2022-09-22T07:38:02.719Z,11.44
2022-09-22T07:39:02.653Z,11.53
2022-09-22T07:40:02.621Z,11.59
2022-09-22T07:41:02.314Z,11.68
2022-09-22T07:42:02.096Z,11.72
2022-09-22T07:43:02.125Z,11.80
2022-09-22T07:44:02.087Z,11.86
2022-09-22T07:45:01.937Z,11.93
2022-09-22T07:46:02.178Z,12.01
2022-09-22T07:47:02.777Z,12.08
2022-09-22T07:48:02.770Z,12.09
2022-09-22T07:49:02.611Z,12.19
2022-09-22T07:50:02.555Z,12.23
2022-09-22T07:51:02.405Z,12.27
2022-09-22T07:52:02.190Z,12.37
2022-09-22T07:53:02.249Z,12.41
2022-09-22T07:54:02.198Z,12.46
2022-09-22T07:55:02.065Z,12.52
2022-09-22T07:56:02.454Z,12.59
2022-09-22T07:57:01.895Z,12.63
2022-09-22T07:58:02.118Z,12.66
2022-09-22T07:59:01.938Z,12.71
2022-09-22T08:00:01.774Z,12.77
2022-09-22T08:01:01.948Z,12.85
2022-09-22T08:02:02.706Z,12.88
2022-09-22T08:03:02.801Z,12.95
2022-09-22T08:04:02.814Z,12.97
2022-09-22T08:05:02.865Z,13.02
2022-09-22T08:06:06.115Z,13.07
2022-09-22T08:07:02.481Z,13.11
2022-09-22T08:08:02.503Z,13.17
2022-09-22T08:09:02.490Z,13.22
2022-09-22T08:10:02.497Z,13.27
2022-09-22T08:11:02.421Z,13.30
2022-09-22T08:12:02.068Z,13.38
2022-09-22T08:13:01.981Z,13.46
2022-09-22T08:14:01.801Z,13.51
2022-09-22T08:15:01.789Z,13.55
2022-09-22T08:16:01.967Z,13.62
2022-09-22T08:17:02.692Z,13.65
2022-09-22T08:18:02.755Z,13.69
2022-09-22T08:19:02.766Z,13.74
2022-09-22T08:20:02.749Z,13.80
2022-09-22T08:21:02.690Z,13.87
2022-09-22T08:22:02.133Z,13.89
2022-09-22T08:23:01.931Z,13.92
2022-09-22T08:24:01.943Z,13.95
2022-09-22T08:25:02.159Z,13.96
2022-09-22T08:26:01.868Z,14.01
2022-09-22T08:27:02.615Z,14.09
2022-09-22T08:28:02.284Z,14.12
2022-09-22T08:29:02.282Z,14.20
2022-09-22T08:30:02.108Z,14.24
2022-09-22T08:31:02.164Z,14.28
2022-09-22T08:32:02.270Z,14.32
2022-09-22T08:33:02.069Z,14.38
2022-09-22T08:34:02.235Z,14.46
2022-09-22T08:35:01.917Z,14.52
2022-09-22T08:36:01.793Z,14.61
2022-09-22T08:37:02.453Z,14.67
2022-09-22T08:38:02.357Z,14.74
2022-09-22T08:39:02.211Z,14.83
2022-09-22T08:40:02.351Z,14.87
2022-09-22T08:41:01.969Z,14.91
2022-09-22T08:42:01.536Z,14.94
2022-09-22T08:43:02.142Z,14.99
2022-09-22T08:44:02.201Z,15.03
2022-09-22T08:45:01.990Z,15.05
2022-09-22T08:46:01.981Z,15.11
2022-09-22T08:47:02.651Z,15.19
2022-09-22T08:48:02.524Z,15.20
2022-09-22T08:49:02.594Z,15.24
2022-09-22T08:50:02.635Z,15.28
2022-09-22T08:51:02.584Z,15.33
2022-09-22T08:52:02.115Z,15.38
2022-09-22T08:53:02.259Z,15.41
2022-09-22T08:54:06.924Z,15.42
2022-09-22T08:55:02.729Z,15.46
2022-09-22T08:56:02.477Z,15.52
2022-09-22T08:57:03.129Z,15.57
2022-09-22T08:58:02.909Z,15.64
2022-09-22T08:59:02.610Z,15.72
2022-09-22T09:00:03.007Z,15.79
2022-09-22T09:01:02.765Z,15.85
2022-09-22T09:02:02.048Z,15.89
2022-09-22T09:03:02.028Z,15.96
2022-09-22T09:04:02.000Z,15.99
2022-09-22T09:05:01.992Z,16.04
2022-09-22T09:06:02.630Z,16.09
2022-09-22T09:07:02.180Z,16.15
2022-09-22T09:08:02.528Z,16.16
2022-09-22T09:09:05.025Z,16.16
2022-09-22T09:10:02.266Z,16.22
2022-09-22T09:11:02.596Z,16.25
2022-09-22T09:12:02.623Z,16.26
2022-09-22T09:13:03.135Z,16.33
2022-09-22T09:14:02.805Z,16.35
2022-09-22T09:15:02.651Z,16.40
2022-09-22T09:16:02.666Z,16.42
2022-09-22T09:17:02.078Z,16.48
2022-09-22T09:18:02.508Z,16.56
2022-09-22T09:19:02.544Z,16.62
2022-09-22T09:20:02.440Z,16.67
2022-09-22T09:21:02.458Z,16.74
2022-09-22T09:22:02.390Z,16.77
2022-09-22T09:23:02.374Z,16.81
2022-09-22T09:26:02.843Z,17.03
2022-09-22T09:27:01.922Z,17.07
2022-09-22T09:28:02.082Z,17.11
2022-09-22T09:29:06.021Z,17.18
2022-09-22T09:30:02.172Z,17.25
2022-09-22T09:31:02.394Z,17.32
2022-09-22T09:32:02.777Z,17.38
2022-09-22T09:33:02.491Z,17.46
2022-09-22T09:34:02.403Z,17.54
2022-09-22T09:35:02.281Z,17.64
2022-09-22T09:36:02.274Z,17.73
2022-09-22T09:37:02.072Z,17.84
2022-09-22T09:38:02.289Z,17.89
2022-09-22T09:39:02.202Z,17.99
2022-09-22T09:40:01.936Z,18.07
2022-09-22T09:41:01.889Z,18.09
2022-09-22T09:42:02.544Z,18.13
2022-09-22T09:43:03.377Z,18.21
2022-09-22T09:44:02.699Z,18.28
2022-09-22T09:45:02.762Z,18.36
2022-09-22T09:46:03.029Z,18.43
2022-09-22T09:47:02.806Z,18.49
2022-09-22T09:48:03.110Z,18.58
2022-09-22T09:49:03.121Z,18.67
2022-09-22T09:50:03.061Z,18.72
2022-09-22T09:51:02.890Z,18.83
2022-09-22T09:52:02.326Z,18.90
2022-09-22T09:53:02.347Z,18.97
2022-09-22T09:54:02.377Z,19.06
2022-09-22T09:55:02.330Z,19.11
2022-09-22T09:56:02.257Z,19.14
2022-09-22T09:57:02.896Z,19.20
2022-09-22T09:58:02.898Z,19.32
2022-09-22T09:59:02.933Z,19.36
2022-09-22T10:00:02.853Z,19.40
2022-09-22T10:01:02.869Z,19.47
2022-09-22T10:02:02.265Z,19.53
2022-09-22T10:03:02.252Z,19.60
2022-09-22T10:04:02.263Z,19.63
2022-09-22T10:05:02.801Z,19.69
2022-09-22T10:06:02.233Z,19.72
2022-09-22T10:07:02.465Z,19.79
2022-09-22T10:08:02.380Z,19.83
2022-09-22T10:09:02.458Z,19.87
2022-09-22T10:10:02.350Z,19.88
2022-09-22T10:11:02.492Z,19.84
2022-09-22T10:12:02.819Z,19.79
2022-09-22T10:13:02.779Z,19.79
2022-09-22T10:14:02.778Z,19.88
2022-09-22T10:15:02.775Z,19.91
2022-09-22T10:16:02.884Z,19.97
2022-09-22T10:17:02.440Z,20.03
2022-09-22T10:18:02.431Z,20.08
2022-09-22T10:19:02.300Z,20.10
2022-09-22T10:20:02.291Z,20.12
2022-09-22T10:21:02.337Z,20.13
2022-09-22T10:22:03.037Z,20.20
2022-09-22T10:23:02.950Z,20.27
2022-09-22T10:24:02.882Z,20.31
2022-09-22T10:25:02.810Z,20.38
2022-09-22T10:26:02.803Z,20.39
2022-09-22T10:27:05.296Z,20.47
2022-09-22T10:28:02.387Z,20.47
2022-09-22T10:29:02.414Z,20.54
2022-09-22T10:30:02.521Z,20.59
2022-09-22T10:31:02.394Z,20.65
2022-09-22T10:32:03.090Z,20.68
2022-09-22T10:33:03.113Z,20.72
2022-09-22T10:34:02.613Z,20.72
2022-09-22T10:35:02.686Z,20.76
2022-09-22T10:36:03.854Z,20.79
2022-09-22T10:37:02.463Z,20.81
2022-09-22T10:38:02.432Z,20.84
2022-09-22T10:39:02.592Z,20.89
2022-09-22T10:40:02.576Z,20.90
2022-09-22T10:41:02.451Z,20.95
2022-09-22T10:42:03.013Z,20.99
2022-09-22T10:43:02.642Z,21.04
2022-09-22T10:44:15.479Z,21.02
2022-09-22T10:45:03.096Z,21.05
2022-09-22T10:46:03.214Z,21.08
2022-09-22T10:47:02.784Z,21.13
2022-09-22T10:48:02.634Z,21.20
2022-09-22T10:49:02.631Z,21.26
2022-09-22T10:50:02.648Z,21.29
2022-09-22T10:51:02.621Z,21.32
2022-09-22T10:52:03.236Z,21.35
2022-09-22T10:53:02.859Z,21.35
2022-09-22T10:54:02.736Z,21.41
2022-09-22T10:55:03.183Z,21.48
2022-09-22T10:56:03.129Z,21.50
2022-09-22T10:57:02.740Z,21.54
2022-09-22T10:58:02.502Z,21.59
2022-09-22T10:59:02.529Z,21.57
2022-09-22T11:00:02.556Z,21.39
2022-09-22T11:01:02.516Z,21.32
2022-09-22T11:02:03.116Z,21.34
2022-09-22T11:03:02.818Z,21.35
2022-09-22T11:04:03.146Z,21.32
2022-09-22T11:05:02.961Z,21.30
2022-09-22T11:06:02.962Z,21.34
2022-09-22T11:07:03.661Z,21.39
2022-09-22T11:08:03.431Z,21.50
2022-09-22T11:09:03.605Z,21.61
2022-09-22T11:10:03.231Z,21.64
2022-09-22T11:11:03.531Z,21.67
2022-09-22T11:12:03.843Z,21.72
2022-09-22T11:13:03.324Z,21.76
2022-09-22T11:14:03.322Z,21.82
2022-09-22T11:15:03.479Z,21.91
2022-09-22T11:16:03.337Z,21.95
2022-09-22T11:17:02.398Z,21.95
2022-09-22T11:18:02.428Z,21.99
2022-09-22T11:19:02.464Z,21.95
2022-09-22T11:20:02.481Z,21.83
2022-09-22T11:21:02.427Z,21.76
2022-09-22T11:22:02.466Z,21.82
2022-09-22T11:23:02.750Z,21.88
2022-09-22T11:24:02.734Z,21.76
2022-09-22T11:25:02.705Z,21.78
2022-09-22T11:26:02.497Z,21.82
2022-09-22T11:27:02.970Z,21.92
2022-09-22T11:28:03.451Z,21.92
2022-09-22T11:29:03.361Z,21.99
2022-09-22T11:30:10.526Z,22.02
2022-09-22T11:31:03.462Z,22.09
2022-09-22T11:32:03.416Z,22.14
2022-09-22T11:33:02.432Z,22.27
2022-09-22T11:34:02.676Z,22.31
2022-09-22T11:35:02.693Z,22.20
2022-09-22T11:36:02.553Z,22.04
2022-09-22T11:37:02.592Z,21.97
2022-09-22T11:38:03.171Z,21.94
2022-09-22T11:39:03.156Z,21.94
2022-09-22T11:40:03.340Z,21.90
2022-09-22T11:41:03.103Z,21.97
2022-09-22T11:42:03.012Z,22.12
2022-09-22T11:43:04.533Z,22.20
2022-09-22T11:44:03.822Z,22.27
2022-09-22T11:45:03.496Z,22.32
2022-09-22T11:46:03.592Z,22.34
2022-09-22T11:47:03.389Z,22.38
2022-09-22T11:48:02.580Z,22.41
2022-09-22T11:49:03.190Z,22.56
2022-09-22T11:50:02.819Z,22.72
2022-09-22T11:51:02.875Z,22.86
2022-09-22T11:52:03.128Z,22.96
2022-09-22T11:53:03.166Z,23.11
2022-09-22T11:54:03.109Z,23.22
2022-09-22T11:55:03.050Z,23.29
2022-09-22T11:56:03.219Z,23.39
2022-09-22T11:57:03.199Z,23.49
2022-09-22T11:58:03.245Z,23.53
2022-09-22T11:59:03.328Z,23.60
2022-09-22T12:00:03.410Z,23.60
2022-09-22T12:01:03.403Z,23.61
2022-09-22T12:02:03.255Z,23.60
2022-09-22T12:03:03.771Z,23.58
2022-09-22T12:04:03.578Z,23.58
2022-09-22T12:05:03.270Z,23.55
2022-09-22T12:06:03.141Z,23.49
2022-09-22T12:07:03.483Z,23.46
2022-09-22T12:08:02.819Z,23.39
2022-09-22T12:09:02.572Z,23.40
2022-09-22T12:10:02.346Z,23.42
2022-09-22T12:11:02.795Z,23.43
2022-09-22T12:12:02.570Z,23.34
2022-09-22T12:13:02.424Z,23.31
2022-09-22T12:14:02.325Z,23.24
2022-09-22T12:15:02.352Z,23.20
2022-09-22T12:16:02.382Z,23.15
2022-09-22T12:17:02.486Z,23.19
2022-09-22T12:18:03.038Z,23.20
2022-09-22T12:19:03.073Z,23.12
2022-09-22T12:20:03.038Z,23.07
2022-09-22T12:21:03.376Z,23.11
2022-09-22T12:22:03.125Z,23.17
2022-09-22T12:23:02.924Z,23.24
2022-09-22T12:24:02.975Z,23.39
2022-09-22T12:25:02.607Z,23.58
2022-09-22T12:26:02.825Z,23.68
2022-09-22T12:27:02.823Z,23.79
2022-09-22T12:28:03.520Z,23.87
2022-09-22T12:29:03.280Z,23.89
2022-09-22T12:30:03.322Z,23.98
2022-09-22T12:31:03.413Z,23.94
2022-09-22T12:32:03.458Z,23.86
2022-09-22T12:33:03.147Z,23.98
2022-09-22T12:34:02.920Z,24.16
2022-09-22T12:35:02.858Z,24.26
2022-09-22T12:36:03.298Z,24.38
2022-09-22T12:37:03.408Z,24.53
2022-09-22T12:38:02.917Z,24.64
2022-09-22T12:39:02.858Z,24.75
2022-09-22T12:40:02.951Z,24.85
2022-09-22T12:41:02.732Z,24.95
2022-09-22T12:42:02.617Z,25.06
2022-09-22T12:43:03.307Z,25.09
2022-09-22T12:44:03.335Z,25.06
2022-09-22T12:45:03.213Z,25.13
2022-09-22T12:46:03.125Z,25.24
2022-09-22T12:47:03.272Z,25.34
2022-09-22T12:48:04.791Z,25.43
2022-09-22T12:49:02.928Z,25.49
2022-09-22T12:50:02.878Z,25.53
2022-09-22T12:51:02.834Z,25.61
2022-09-22T12:52:02.860Z,25.71
2022-09-22T12:53:03.251Z,25.69
2022-09-22T12:54:03.287Z,25.71
2022-09-22T12:55:03.423Z,25.71
2022-09-22T12:56:03.425Z,25.84
2022-09-22T12:57:03.483Z,25.90
2022-09-22T12:58:03.113Z,25.94
2022-09-22T12:59:03.058Z,25.98
2022-09-22T13:00:02.954Z,25.97
2022-09-22T13:01:03.006Z,26.05
2022-09-22T13:02:03.216Z,26.09
2022-09-22T13:03:02.189Z,26.09
2022-09-22T13:04:02.475Z,26.15
2022-09-22T13:05:02.737Z,26.18
2022-09-22T13:06:02.360Z,26.15
2022-09-22T13:07:02.636Z,26.20
2022-09-22T13:08:03.286Z,26.17